^^
Saratoga-Weather Station Historical Data
Daily Summary for April 17, 2020 Units:  Metric    English   Both
Daily Weekly Monthly Yearly Custom
  High: Low: Average:
Temperature: 10.2 °C 5.1 °C 7.8 °C
Dew Point: 8.6 °C 4.7 °C 6.9 °C
Humidity: 98% 86% 94%
Wind Speed: 13km/h 0km/h 1.1km/h
Wind Gust: 17.7km/h - -
Wind- - SW
Pressure: 1024.0 hPa 1015.6 hPa -
Precipitation: 0.5 mm    
Historical Graphs
 
 
Tabular Data for April 17, 2020
Time Temperature Dew Point Pressure Wind Wind Speed Wind Gust Humidity Rainfall Rate (Hourly) solar
00:04 5.6 °C 5.2 °C 1015.6 hPa Calm     97% 0.0 mm 0 W/m2
00:09 5.6 °C 5.2 °C 1015.6 hPa Calm     97% 0.0 mm 0 W/m2
00:14 5.5 °C 5.1 °C 1015.6 hPa Calm     97% 0.0 mm 0 W/m2
00:19 5.4 °C 5 °C 1015.6 hPa Calm     97% 0.0 mm 0 W/m2
00:24 5.3 °C 4.9 °C 1015.6 hPa Calm     97% 0.0 mm 0 W/m2
00:29 5.3 °C 4.9 °C 1015.6 hPa Calm     97% 0.0 mm 0 W/m2
00:34 5.3 °C 4.9 °C 1015.6 hPa Calm     97% 0.0 mm 0 W/m2
00:52 5.3 °C 4.9 °C 1015.6 hPa Calm     97% 0.0 mm 0 W/m2
00:57 5.3 °C 4.9 °C 1015.6 hPa Calm     97% 0.0 mm 0 W/m2
01:02 5.3 °C 4.9 °C 1015.9 hPa Calm     97% 0.0 mm 0 W/m2
01:07 5.3 °C 4.9 °C 1015.9 hPa Calm     97% 0.0 mm 0 W/m2
01:12 5.3 °C 4.9 °C 1015.6 hPa Calm     97% 0.0 mm 0 W/m2
01:17 5.3 °C 4.9 °C 1015.6 hPa Calm     97% 0.0 mm 0 W/m2
01:22 5.3 °C 4.9 °C 1015.6 hPa Calm     97% 0.0 mm 0 W/m2
01:27 5.3 °C 5 °C 1015.6 hPa Calm     98% 0.0 mm 0 W/m2
01:32 5.3 °C 5 °C 1015.6 hPa Calm     98% 0.0 mm 0 W/m2
01:37 5.3 °C 5 °C 1015.9 hPa Calm     98% 0.0 mm 0 W/m2
01:42 5.4 °C 5.1 °C 1015.9 hPa Calm     98% 0.0 mm 0 W/m2
01:47 5.4 °C 5 °C 1015.9 hPa Calm     97% 0.0 mm 0 W/m2
01:52 5.4 °C 5 °C 1015.9 hPa Calm     97% 0.0 mm 0 W/m2
01:57 5.5 °C 5.2 °C 1015.9 hPa Calm     98% 0.0 mm 0 W/m2
02:02 5.5 °C 5.2 °C 1015.9 hPa Calm     98% 0.0 mm 0 W/m2
02:07 5.5 °C 5.1 °C 1015.9 hPa Calm     97% 0.0 mm 0 W/m2
02:12 5.4 °C 5 °C 1015.9 hPa Calm     97% 0.0 mm 0 W/m2
02:17 5.4 °C 5.1 °C 1015.9 hPa Calm     98% 0.0 mm 0 W/m2
02:22 5.3 °C 5 °C 1015.9 hPa Calm     98% 0.0 mm 0 W/m2
02:27 5.3 °C 5 °C 1016.3 hPa Calm     98% 0.0 mm 0 W/m2
02:32 5.2 °C 4.8 °C 1016.3 hPa Calm     97% 0.0 mm 0 W/m2
02:37 5.2 °C 4.8 °C 1016.3 hPa Calm     97% 0.0 mm 0 W/m2
02:42 5.1 °C 4.7 °C 1016.3 hPa Calm     97% 0.0 mm 0 W/m2
02:47 5.1 °C 4.7 °C 1016.3 hPa Calm     97% 0.0 mm 0 W/m2
02:52 5.1 °C 4.7 °C 1016.3 hPa Calm     97% 0.0 mm 0 W/m2
02:57 5.1 °C 4.8 °C 1016.3 hPa Calm     98% 0.0 mm 0 W/m2
03:02 5.1 °C 4.8 °C 1016.3 hPa Calm     98% 0.0 mm 0 W/m2
03:07 5.1 °C 4.7 °C 1016.3 hPa Calm     97% 0.0 mm 0 W/m2
03:12 5.2 °C 4.8 °C 1016.3 hPa Calm     97% 0.0 mm 0 W/m2
03:17 5.2 °C 4.8 °C 1016.3 hPa Calm     97% 0.0 mm 0 W/m2
03:22 5.2 °C 4.9 °C 1016.3 hPa Calm     98% 0.0 mm 0 W/m2
03:27 5.2 °C 4.9 °C 1016.3 hPa Calm     98% 0.0 mm 0 W/m2
03:32 5.1 °C 4.8 °C 1016.3 hPa Calm     98% 0.0 mm 0 W/m2
03:37 5.1 °C 4.8 °C 1016.3 hPa Calm     98% 0.0 mm 0 W/m2
03:42 5.1 °C 4.8 °C 1015.9 hPa Calm     98% 0.0 mm 0 W/m2
03:47 5.1 °C 4.8 °C 1015.9 hPa Calm     98% 0.0 mm 0 W/m2
03:52 5.1 °C 4.8 °C 1015.9 hPa Calm     98% 0.0 mm 0 W/m2
03:57 5.2 °C 4.9 °C 1016.3 hPa Calm     98% 0.0 mm 0 W/m2
04:02 5.2 °C 4.9 °C 1016.3 hPa Calm     98% 0.0 mm 0 W/m2
04:07 5.3 °C 5 °C 1016.3 hPa Calm     98% 0.0 mm 0 W/m2
04:12 5.3 °C 5 °C 1016.3 hPa Calm     98% 0.0 mm 0 W/m2
04:17 5.3 °C 5 °C 1016.3 hPa Calm     98% 0.0 mm 0 W/m2
04:22 5.3 °C 5 °C 1016.3 hPa Calm     98% 0.0 mm 0 W/m2
04:27 5.4 °C 5.1 °C 1016.3 hPa Calm     98% 0.0 mm 0 W/m2
04:32 5.4 °C 5.1 °C 1016.3 hPa Calm     98% 0.0 mm 0 W/m2
04:37 5.4 °C 5.1 °C 1016.3 hPa Calm     98% 0.0 mm 0 W/m2
04:42 5.5 °C 5.2 °C 1016.3 hPa Calm     98% 0.0 mm 0 W/m2
04:47 5.5 °C 5.2 °C 1016.3 hPa Calm     98% 0.0 mm 0 W/m2
04:52 5.6 °C 5.3 °C 1016.3 hPa Calm     98% 0.0 mm 0 W/m2
05:11 5.7 °C 5.4 °C 1016.3 hPa Calm     98% 0.0 mm 0 W/m2
05:16 5.7 °C 5.4 °C 1016.3 hPa Calm     98% 0.0 mm 0 W/m2
05:21 5.7 °C 5.4 °C 1016.3 hPa Calm     98% 0.0 mm 0 W/m2
05:26 5.7 °C 5.4 °C 1016.3 hPa Calm     98% 0.0 mm 0 W/m2
05:31 5.7 °C 5.4 °C 1016.3 hPa ENE 3.2 km/h 3.2 km/h 98% 0.0 mm 0 W/m2
05:36 5.7 °C 5.4 °C 1016.3 hPa ESE 1.4 km/h 4.8 km/h 98% 0.0 mm 0 W/m2
05:41 5.8 °C 5.5 °C 1016.3 hPa SE 3.2 km/h 4.8 km/h 98% 0.0 mm 0 W/m2
05:46 6 °C 5.7 °C 1016.6 hPa SE 1.4 km/h 3.2 km/h 98% 0.0 mm 0 W/m2
05:51 6.1 °C 5.8 °C 1016.6 hPa ESE 1.4 km/h 4.8 km/h 98% 0.0 mm 0 W/m2
05:56 6.2 °C 5.9 °C 1016.6 hPa ESE 3.2 km/h 3.2 km/h 98% 0.0 mm 0 W/m2
06:01 6.2 °C 5.9 °C 1016.6 hPa Calm     98% 0.0 mm 0 W/m2
06:06 6.2 °C 5.9 °C 1016.9 hPa Calm   3.2 km/h 98% 0.0 mm 0 W/m2
06:11 6.1 °C 5.8 °C 1016.9 hPa Calm   3.2 km/h 98% 0.0 mm 0 W/m2
06:16 6.1 °C 5.8 °C 1016.9 hPa Calm     98% 0.0 mm 0 W/m2
06:21 6.1 °C 5.8 °C 1016.9 hPa Calm   1.6 km/h 98% 0.0 mm 0 W/m2
06:26 6.4 °C 6.1 °C 1016.9 hPa Calm   3.2 km/h 98% 0.0 mm 0 W/m2
06:31 6.6 °C 6.3 °C 1016.9 hPa NW 3.2 km/h 4.8 km/h 98% 0.0 mm 0 W/m2
06:36 6.9 °C 6.6 °C 1017.3 hPa North 1.4 km/h 3.2 km/h 98% 0.0 mm 0 W/m2
06:41 7.2 °C 6.9 °C 1017.3 hPa SE 1.4 km/h 6.4 km/h 98% 0.0 mm 0 W/m2
06:46 7.3 °C 7 °C 1017.3 hPa NNW 1.4 km/h 4.8 km/h 98% 0.0 mm 0 W/m2
06:51 7.6 °C 7.3 °C 1017.3 hPa Calm   3.2 km/h 98% 0.0 mm 0 W/m2
06:56 7.6 °C 7.3 °C 1017.6 hPa East 9.7 km/h 9.7 km/h 98% 0.0 mm 0 W/m2
07:01 7.8 °C 7.5 °C 1017.6 hPa Calm   9.7 km/h 98% 0.0 mm 0 W/m2
07:06 8 °C 7.7 °C 1017.6 hPa Calm   6.4 km/h 98% 0.0 mm 0 W/m2
07:11 8.2 °C 7.9 °C 1017.6 hPa Calm   3.2 km/h 98% 0.0 mm 0 W/m2
07:16 8.2 °C 7.9 °C 1018.0 hPa ESE 3.2 km/h 9.7 km/h 98% 0.0 mm 0 W/m2
07:21 8.3 °C 8 °C 1018.0 hPa WNW 1.4 km/h 8 km/h 98% 0.0 mm 0 W/m2
07:26 8.3 °C 8 °C 1018.0 hPa NW 1.4 km/h 4.8 km/h 98% 0.2 mm 0 W/m2
07:46 8.4 °C 8 °C 1018.3 hPa SE 4.7 km/h 8 km/h 97% 0.2 mm 0 W/m2
07:51 8.4 °C 8 °C 1018.6 hPa NW 1.4 km/h 6.4 km/h 97% 0.2 mm 0 W/m2
07:56 8.4 °C 7.8 °C 1018.6 hPa West 6.4 km/h 11.3 km/h 96% 0.5 mm 0 W/m2
08:01 8.4 °C 7.8 °C 1018.6 hPa West 1.4 km/h 4.8 km/h 96% 0.5 mm 0 W/m2
08:06 8.4 °C 7.8 °C 1018.6 hPa WSW 1.4 km/h 3.2 km/h 96% 0.5 mm 0 W/m2
08:11 8.4 °C 7.8 °C 1019.0 hPa Calm   4.8 km/h 96% 0.5 mm 0 W/m2
08:32 8.3 °C 7.7 °C 1019.3 hPa SSE 1.4 km/h 3.2 km/h 96% 0.2 mm 5 W/m2
08:37 8.2 °C 7.6 °C 1019.3 hPa Calm   3.2 km/h 96% 0.5 mm 0 W/m2
08:42 8.2 °C 7.6 °C 1019.6 hPa Calm   4.8 km/h 96% 0.5 mm 5 W/m2
08:47 8.2 °C 7.6 °C 1019.6 hPa WSW 3.2 km/h 6.4 km/h 96% 0.5 mm 9 W/m2
08:52 8.2 °C 7.6 °C 1019.6 hPa Calm   1.6 km/h 96% 0.2 mm 9 W/m2
08:57 8.1 °C 7.5 °C 1019.6 hPa Calm   4.8 km/h 96% 0.2 mm 12 W/m2
09:02 8.1 °C 7.5 °C 1019.6 hPa Calm   1.6 km/h 96% 0.2 mm 16 W/m2
09:07 8.1 °C 7.5 °C 1019.6 hPa WSW 1.4 km/h 3.2 km/h 96% 0.2 mm 19 W/m2
09:12 8.2 °C 7.6 °C 1019.6 hPa Calm   4.8 km/h 96% 0.2 mm 21 W/m2
09:17 8.2 °C 7.6 °C 1019.6 hPa WNW 3.2 km/h 3.2 km/h 96% 0.2 mm 26 W/m2
09:22 8.2 °C 7.6 °C 1020.0 hPa Calm   1.6 km/h 96% 0.2 mm 32 W/m2
09:27 8.2 °C 7.6 °C 1020.0 hPa Calm   1.6 km/h 96% 0.2 mm 26 W/m2
09:32 8.2 °C 7.6 °C 1020.0 hPa Calm   4.8 km/h 96% 0.2 mm 25 W/m2
09:50 8.3 °C 7.7 °C 1020.3 hPa WNW 1.4 km/h 3.2 km/h 96% 0.0 mm 32 W/m2
09:55 8.4 °C 7.8 °C 1020.3 hPa Calm   3.2 km/h 96% 0.0 mm 40 W/m2
10:00 8.4 °C 7.8 °C 1020.3 hPa WNW 1.4 km/h 3.2 km/h 96% 0.0 mm 62 W/m2
10:05 8.4 °C 7.8 °C 1020.3 hPa NW 1.4 km/h 4.8 km/h 96% 0.0 mm 76 W/m2
10:10 8.5 °C 7.9 °C 1020.3 hPa Calm   3.2 km/h 96% 0.0 mm 77 W/m2
10:15 8.6 °C 7.8 °C 1020.7 hPa Calm   3.2 km/h 95% 0.0 mm 76 W/m2
10:20 8.7 °C 7.9 °C 1020.7 hPa Calm   1.6 km/h 95% 0.0 mm 72 W/m2
10:25 8.7 °C 7.9 °C 1020.7 hPa West 3.2 km/h 11.3 km/h 95% 0.0 mm 100 W/m2
10:30 8.7 °C 7.9 °C 1020.7 hPa NW 1.4 km/h   95% 0.0 mm 97 W/m2
10:35 8.8 °C 8 °C 1021.0 hPa WNW 1.4 km/h 11.3 km/h 95% 0.0 mm 93 W/m2
10:40 8.9 °C 8.1 °C 1021.0 hPa WNW 3.2 km/h 4.8 km/h 95% 0.0 mm 83 W/m2
10:45 8.9 °C 8.1 °C 1021.0 hPa WNW 3.2 km/h 12.9 km/h 95% 0.0 mm 81 W/m2
10:50 9 °C 8.1 °C 1021.0 hPa North 3.2 km/h 4.8 km/h 94% 0.0 mm 105 W/m2
10:55 9 °C 8.1 °C 1021.0 hPa Calm   12.9 km/h 94% 0.0 mm 91 W/m2
11:00 9.1 °C 8.2 °C 1021.0 hPa NW 6.4 km/h 6.4 km/h 94% 0.0 mm 95 W/m2
11:05 9.1 °C 8.2 °C 1021.0 hPa WNW 13 km/h 17.7 km/h 94% 0.0 mm 113 W/m2
11:10 9.2 °C 8.1 °C 1021.0 hPa SW 9.7 km/h 9.7 km/h 93% 0.0 mm 86 W/m2
11:15 9.3 °C 8.2 °C 1021.3 hPa North 4.7 km/h 17.7 km/h 93% 0.0 mm 105 W/m2
11:20 9.3 °C 8.2 °C 1021.3 hPa WNW 3.2 km/h 9.7 km/h 93% 0.0 mm 162 W/m2
11:25 9.4 °C 8.3 °C 1021.3 hPa WNW 1.4 km/h 6.4 km/h 93% 0.0 mm 93 W/m2
11:30 9.5 °C 8.3 °C 1021.3 hPa NW 3.2 km/h 9.7 km/h 92% 0.0 mm 93 W/m2
11:35 9.5 °C 8.3 °C 1021.3 hPa NNW 4.7 km/h 9.7 km/h 92% 0.0 mm 53 W/m2
11:40 9.5 °C 8.3 °C 1021.3 hPa NW 3.2 km/h 12.9 km/h 92% 0.0 mm 60 W/m2
11:45 9.5 °C 8.3 °C 1021.3 hPa NW 3.2 km/h 12.9 km/h 92% 0.0 mm 105 W/m2
11:50 9.6 °C 8.4 °C 1021.3 hPa Calm   4.8 km/h 92% 0.0 mm 128 W/m2
11:55 9.7 °C 8.5 °C 1021.3 hPa WNW 6.4 km/h 8 km/h 92% 0.0 mm 135 W/m2
12:00 9.7 °C 8.5 °C 1021.3 hPa WNW 4.7 km/h 8 km/h 92% 0.0 mm 100 W/m2
12:05 9.8 °C 8.6 °C 1021.3 hPa NW 6.4 km/h 8 km/h 92% 0.0 mm 67 W/m2
12:10 9.8 °C 8.4 °C 1021.3 hPa NW 1.4 km/h 4.8 km/h 91% 0.0 mm 98 W/m2
12:15 9.8 °C 8.4 °C 1021.3 hPa Calm   3.2 km/h 91% 0.0 mm 113 W/m2
12:20 9.9 °C 8.5 °C 1021.3 hPa NNW 3.2 km/h 6.4 km/h 91% 0.0 mm 116 W/m2
12:25 9.9 °C 8.5 °C 1021.3 hPa NW 4.7 km/h 6.4 km/h 91% 0.0 mm 79 W/m2
12:30 10 °C 8.6 °C 1021.3 hPa West 4.7 km/h 4.8 km/h 91% 0.0 mm 62 W/m2
12:35 9.9 °C 8.3 °C 1021.3 hPa WNW 1.4 km/h 17.7 km/h 90% 0.0 mm 77 W/m2
12:40 9.9 °C 8.3 °C 1021.3 hPa West 9.7 km/h 16.1 km/h 90% 0.0 mm 63 W/m2
12:45 9.9 °C 8.3 °C 1021.3 hPa West 4.7 km/h 9.7 km/h 90% 0.0 mm 63 W/m2
12:50 9.9 °C 8.3 °C 1021.3 hPa West 3.2 km/h 16.1 km/h 90% 0.0 mm 86 W/m2
12:55 9.9 °C 8.3 °C 1021.3 hPa Calm   8 km/h 90% 0.0 mm 81 W/m2
13:00 9.9 °C 8.5 °C 1021.3 hPa NW 1.4 km/h 11.3 km/h 91% 0.0 mm 91 W/m2
13:05 9.9 °C 8.3 °C 1021.3 hPa WNW 4.7 km/h 4.8 km/h 90% 0.0 mm 100 W/m2
13:10 9.9 °C 8.3 °C 1021.3 hPa West 6.4 km/h 11.3 km/h 90% 0.0 mm 53 W/m2
13:15 9.9 °C 8.2 °C 1021.3 hPa WSW 1.4 km/h 6.4 km/h 89% 0.0 mm 30 W/m2
13:20 9.8 °C 8.1 °C 1021.3 hPa WSW 11.1 km/h 11.3 km/h 89% 0.0 mm 30 W/m2
13:25 9.8 °C 7.9 °C 1021.3 hPa Calm   3.2 km/h 88% 0.0 mm 26 W/m2
13:30 9.8 °C 8.1 °C 1021.3 hPa Calm   3.2 km/h 89% 0.0 mm 28 W/m2
13:35 9.7 °C 7.8 °C 1021.3 hPa West 1.4 km/h 3.2 km/h 88% 0.0 mm 33 W/m2
13:40 9.7 °C 7.8 °C 1021.3 hPa SW 1.4 km/h 4.8 km/h 88% 0.0 mm 46 W/m2
13:45 9.8 °C 7.9 °C 1021.3 hPa Calm   4.8 km/h 88% 0.0 mm 91 W/m2
13:50 9.9 °C 8 °C 1021.7 hPa WNW 6.4 km/h 6.4 km/h 88% 0.0 mm 65 W/m2
13:55 9.9 °C 8 °C 1021.7 hPa West 1.4 km/h 4.8 km/h 88% 0.0 mm 79 W/m2
14:01 10 °C 8.1 °C 1021.7 hPa WNW 4.7 km/h 6.4 km/h 88% 0.0 mm 76 W/m2
14:06 10 °C 8.1 °C 1021.7 hPa ESE 1.4 km/h 6.4 km/h 88% 0.0 mm 62 W/m2
14:11 10 °C 7.9 °C 1021.7 hPa NE 1.4 km/h 4.8 km/h 87% 0.0 mm 69 W/m2
14:16 10.1 °C 8 °C 1021.7 hPa Calm   3.2 km/h 87% 0.0 mm 58 W/m2
14:21 10.1 °C 8 °C 1021.7 hPa North 3.2 km/h 3.2 km/h 87% 0.0 mm 67 W/m2
14:26 10.1 °C 8 °C 1021.7 hPa Calm   6.4 km/h 87% 0.0 mm 63 W/m2
14:31 10.1 °C 8 °C 1021.7 hPa North 1.4 km/h 9.7 km/h 87% 0.0 mm 91 W/m2
14:36 10.1 °C 8 °C 1021.7 hPa WNW 4.7 km/h 6.4 km/h 87% 0.0 mm 83 W/m2
14:41 10.1 °C 7.9 °C 1021.7 hPa Calm   8 km/h 86% 0.0 mm 98 W/m2
14:46 10.2 °C 8 °C 1021.7 hPa Calm   3.2 km/h 86% 0.0 mm 62 W/m2
14:51 10.2 °C 8 °C 1021.7 hPa NW 1.4 km/h 9.7 km/h 86% 0.0 mm 54 W/m2
14:56 10.2 °C 8.1 °C 1021.7 hPa Calm   3.2 km/h 87% 0.0 mm 60 W/m2
15:01 10.1 °C 8 °C 1021.7 hPa NW 1.4 km/h 9.7 km/h 87% 0.0 mm 47 W/m2
15:06 10.1 °C 7.9 °C 1021.7 hPa East 1.4 km/h 3.2 km/h 86% 0.0 mm 40 W/m2
15:11 10.1 °C 7.9 °C 1021.7 hPa South 1.4 km/h 3.2 km/h 86% 0.0 mm 51 W/m2
15:16 10.1 °C 7.9 °C 1021.7 hPa NE 3.2 km/h 4.8 km/h 86% 0.0 mm 51 W/m2
15:21 10.1 °C 8 °C 1022.0 hPa West 1.4 km/h 4.8 km/h 87% 0.0 mm 35 W/m2
15:26 10.1 °C 8 °C 1022.0 hPa Calm     87% 0.0 mm 35 W/m2
15:31 10 °C 8.1 °C 1022.0 hPa Calm   4.8 km/h 88% 0.0 mm 40 W/m2
15:49 9.9 °C 8 °C 1022.0 hPa Calm     88% 0.0 mm 12 W/m2
15:54 9.9 °C 8 °C 1022.4 hPa Calm   1.6 km/h 88% 0.0 mm 14 W/m2
15:59 9.9 °C 8.2 °C 1022.4 hPa Calm     89% 0.0 mm 11 W/m2
16:04 9.9 °C 8.2 °C 1022.4 hPa Calm   1.6 km/h 89% 0.0 mm 11 W/m2
16:09 9.7 °C 8 °C 1022.4 hPa South 1.4 km/h 3.2 km/h 89% 0.0 mm 9 W/m2
16:15 9.7 °C 8 °C 1022.4 hPa Calm   3.2 km/h 89% 0.0 mm 7 W/m2
16:20 9.7 °C 8 °C 1022.4 hPa West 6.4 km/h 6.4 km/h 89% 0.0 mm 11 W/m2
16:25 9.7 °C 8 °C 1022.4 hPa West 1.4 km/h 9.7 km/h 89% 0.0 mm 9 W/m2
16:30 9.8 °C 7.9 °C 1022.4 hPa Calm   3.2 km/h 88% 0.0 mm 5 W/m2
16:35 9.7 °C 8 °C 1022.4 hPa Calm   4.8 km/h 89% 0.0 mm 0 W/m2
16:40 9.7 °C 8 °C 1022.7 hPa Calm     89% 0.0 mm 0 W/m2
16:45 9.6 °C 7.9 °C 1022.7 hPa Calm     89% 0.0 mm 0 W/m2
16:50 9.5 °C 7.8 °C 1022.7 hPa SSE 1.4 km/h 3.2 km/h 89% 0.0 mm 0 W/m2
16:55 9.4 °C 7.7 °C 1022.7 hPa Calm   1.6 km/h 89% 0.0 mm 0 W/m2
17:00 9.3 °C 7.7 °C 1022.7 hPa Calm   3.2 km/h 90% 0.0 mm 0 W/m2
17:05 9.3 °C 7.7 °C 1022.7 hPa Calm   1.6 km/h 90% 0.0 mm 0 W/m2
17:10 9.1 °C 7.5 °C 1022.7 hPa SSE 1.4 km/h 1.6 km/h 90% 0.0 mm 0 W/m2
17:15 9 °C 7.4 °C 1022.7 hPa Calm     90% 0.0 mm 0 W/m2
17:36 8.2 °C 6.8 °C 1023.0 hPa SSE 1.4 km/h 3.2 km/h 91% 0.0 mm 0 W/m2
17:41 7.9 °C 6.7 °C 1023.0 hPa SSE 1.4 km/h 1.6 km/h 92% 0.0 mm 0 W/m2
17:46 7.8 °C 6.6 °C 1023.0 hPa Calm     92% 0.0 mm 0 W/m2
17:51 7.6 °C 6.4 °C 1023.0 hPa Calm     92% 0.0 mm 0 W/m2
17:56 7.5 °C 6.4 °C 1023.4 hPa Calm     93% 0.0 mm 0 W/m2
18:16 7.5 °C 6.8 °C 1023.4 hPa Calm   3.2 km/h 95% 0.0 mm 0 W/m2
18:21 7.6 °C 6.9 °C 1023.0 hPa East 3.2 km/h 4.8 km/h 95% 0.0 mm 0 W/m2
18:26 7.7 °C 6.9 °C 1023.0 hPa East 1.4 km/h 4.8 km/h 95% 0.0 mm 0 W/m2
18:32 7.9 °C 7 °C 1023.4 hPa East 1.4 km/h 1.6 km/h 94% 0.0 mm 0 W/m2
18:37 7.9 °C 7 °C 1023.4 hPa Calm   3.2 km/h 94% 0.0 mm 0 W/m2
18:42 7.9 °C 7 °C 1023.4 hPa Calm     94% 0.0 mm 0 W/m2
18:47 7.9 °C 7 °C 1023.4 hPa Calm     94% 0.0 mm 0 W/m2
18:52 7.8 °C 6.9 °C 1023.4 hPa Calm     94% 0.0 mm 0 W/m2
18:57 7.8 °C 6.9 °C 1023.4 hPa Calm     94% 0.0 mm 0 W/m2
19:02 7.8 °C 6.9 °C 1023.4 hPa Calm   1.6 km/h 94% 0.0 mm 0 W/m2
19:07 7.8 °C 6.9 °C 1023.4 hPa Calm   3.2 km/h 94% 0.0 mm 0 W/m2
19:12 7.8 °C 7 °C 1023.4 hPa Calm     95% 0.0 mm 0 W/m2
19:17 7.8 °C 7 °C 1023.4 hPa Calm   3.2 km/h 95% 0.0 mm 0 W/m2
19:22 7.8 °C 7 °C 1023.4 hPa Calm     95% 0.0 mm 0 W/m2
19:27 7.7 °C 6.9 °C 1023.4 hPa Calm     95% 0.0 mm 0 W/m2
19:32 7.7 °C 6.9 °C 1023.4 hPa Calm     95% 0.0 mm 0 W/m2
19:37 7.7 °C 6.9 °C 1023.7 hPa Calm     95% 0.0 mm 0 W/m2
19:42 7.7 °C 6.9 °C 1023.4 hPa Calm     95% 0.0 mm 0 W/m2
19:47 7.7 °C 6.9 °C 1023.4 hPa Calm     95% 0.0 mm 0 W/m2
19:52 7.7 °C 6.9 °C 1023.4 hPa Calm     95% 0.0 mm 0 W/m2
19:57 7.7 °C 6.9 °C 1023.4 hPa Calm     95% 0.0 mm 0 W/m2
20:02 7.8 °C 7 °C 1023.4 hPa Calm     95% 0.0 mm 0 W/m2
20:07 7.8 °C 7 °C 1023.4 hPa Calm     95% 0.0 mm 0 W/m2
20:12 7.8 °C 7 °C 1023.7 hPa Calm     95% 0.0 mm 0 W/m2
20:17 7.8 °C 7 °C 1023.4 hPa Calm     95% 0.0 mm 0 W/m2
20:22 7.8 °C 7 °C 1023.4 hPa Calm     95% 0.0 mm 0 W/m2
20:27 7.7 °C 6.9 °C 1023.7 hPa Calm     95% 0.0 mm 0 W/m2
20:32 7.7 °C 6.9 °C 1023.7 hPa Calm     95% 0.0 mm 0 W/m2
20:37 7.7 °C 6.9 °C 1023.7 hPa Calm     95% 0.0 mm 0 W/m2
20:42 7.7 °C 6.9 °C 1023.7 hPa Calm     95% 0.0 mm 0 W/m2
20:47 7.7 °C 6.9 °C 1023.7 hPa ENE 1.4 km/h 3.2 km/h 95% 0.0 mm 0 W/m2
20:52 7.6 °C 6.9 °C 1023.7 hPa ENE 1.4 km/h 3.2 km/h 95% 0.0 mm 0 W/m2
21:11 7.8 °C 7 °C 1023.7 hPa Calm   3.2 km/h 95% 0.0 mm 0 W/m2
21:16 7.9 °C 7.1 °C 1023.4 hPa NNE 1.4 km/h 4.8 km/h 95% 0.0 mm 0 W/m2
21:21 8.1 °C 7.3 °C 1023.4 hPa NNE 1.4 km/h 1.6 km/h 95% 0.0 mm 0 W/m2
21:42 8.2 °C 7.1 °C 1023.4 hPa Calm   1.6 km/h 93% 0.0 mm 0 W/m2
21:47 8.3 °C 7.2 °C 1023.4 hPa NW 3.2 km/h 3.2 km/h 93% 0.0 mm 0 W/m2
21:52 8.3 °C 7.2 °C 1023.7 hPa WNW 3.2 km/h 11.3 km/h 93% 0.0 mm 0 W/m2
21:57 8.3 °C 7.1 °C 1023.7 hPa ENE 3.2 km/h 4.8 km/h 92% 0.0 mm 0 W/m2
22:02 8.4 °C 7.2 °C 1023.7 hPa Calm   11.3 km/h 92% 0.0 mm 0 W/m2
22:07 8.4 °C 7.2 °C 1023.7 hPa Calm   1.6 km/h 92% 0.0 mm 0 W/m2
22:12 8.4 °C 7.2 °C 1023.7 hPa Calm     92% 0.0 mm 0 W/m2
22:17 8.3 °C 7.1 °C 1023.7 hPa Calm     92% 0.0 mm 0 W/m2
22:22 8.2 °C 6.8 °C 1023.7 hPa Calm     91% 0.0 mm 0 W/m2
22:27 7.9 °C 6.5 °C 1023.7 hPa Calm     91% 0.0 mm 0 W/m2
22:32 7.7 °C 6.5 °C 1023.7 hPa Calm     92% 0.0 mm 0 W/m2
22:37 7.6 °C 6.4 °C 1023.7 hPa Calm     92% 0.0 mm 0 W/m2
22:42 7.4 °C 6.3 °C 1023.7 hPa Calm     93% 0.0 mm 0 W/m2
22:47 7.3 °C 6.2 °C 1023.7 hPa Calm     93% 0.0 mm 0 W/m2
22:52 7.2 °C 6.1 °C 1023.7 hPa Calm     93% 0.0 mm 0 W/m2
22:57 7.1 °C 6.2 °C 1023.7 hPa Calm     94% 0.0 mm 0 W/m2
23:02 6.9 °C 6 °C 1023.7 hPa Calm     94% 0.0 mm 0 W/m2
23:07 6.9 °C 6 °C 1024.0 hPa Calm   1.6 km/h 94% 0.0 mm 0 W/m2
23:12 6.9 °C 6.2 °C 1024.0 hPa NW 1.4 km/h 1.6 km/h 95% 0.0 mm 0 W/m2
23:17 7.1 °C 6.4 °C 1024.0 hPa North 1.4 km/h 4.8 km/h 95% 0.0 mm 0 W/m2
23:22 7.3 °C 6.6 °C 1024.0 hPa Calm   3.2 km/h 95% 0.0 mm 0 W/m2
23:27 7.5 °C 6.8 °C 1024.0 hPa NW 1.4 km/h 4.8 km/h 95% 0.0 mm 0 W/m2
23:32 7.7 °C 6.9 °C 1024.0 hPa Calm   1.6 km/h 95% 0.0 mm 0 W/m2
23:37 7.8 °C 7 °C 1024.0 hPa West 1.4 km/h 4.8 km/h 95% 0.0 mm 0 W/m2
23:42 7.9 °C 7.1 °C 1023.7 hPa Calm   4.8 km/h 95% 0.0 mm 0 W/m2
23:47 7.9 °C 7.1 °C 1023.7 hPa Calm   1.6 km/h 95% 0.0 mm 0 W/m2
23:52 8 °C 7.2 °C 1023.7 hPa Calm   1.6 km/h 95% 0.0 mm 0 W/m2
23:57 8.1 °C 7.2 °C 1023.7 hPa Calm   1.6 km/h 94% 0.0 mm 0 W/m2
Juneau County Weather
Compliments of Weather Underground - 4 mb